sensor_id;sensor_type;location;lat;lon;timestamp;pressure;altitude;pressure_sealevel;temperature;humidity
74881;BME280;63427;49.654;6.596;2023-09-18T00:00:28;98816.58;;;21.64;45.27
74881;BME280;63427;49.654;6.596;2023-09-18T00:02:53;98819.42;;;21.61;45.98
74881;BME280;63427;49.654;6.596;2023-09-18T00:05:18;98819.56;;;21.18;46.50
74881;BME280;63427;49.654;6.596;2023-09-18T00:07:44;98821.99;;;21.14;46.07
74881;BME280;63427;49.654;6.596;2023-09-18T00:10:10;98826.72;;;21.45;45.97
74881;BME280;63427;49.654;6.596;2023-09-18T00:12:34;98812.70;;;21.16;46.99
74881;BME280;63427;49.654;6.596;2023-09-18T00:15:00;98811.97;;;21.47;47.42
74881;BME280;63427;49.654;6.596;2023-09-18T00:17:26;98834.95;;;21.34;47.45
74881;BME280;63427;49.654;6.596;2023-09-18T00:19:51;98862.16;;;21.09;47.86
74881;BME280;63427;49.654;6.596;2023-09-18T00:22:16;98907.40;;;21.40;48.15
74881;BME280;63427;49.654;6.596;2023-09-18T00:24:42;98966.50;;;19.59;52.19
74881;BME280;63427;49.654;6.596;2023-09-18T00:27:07;98945.77;;;20.18;51.11
74881;BME280;63427;49.654;6.596;2023-09-18T00:29:33;98911.12;;;20.69;50.71
74881;BME280;63427;49.654;6.596;2023-09-18T00:31:58;98909.87;;;20.91;50.69
74881;BME280;63427;49.654;6.596;2023-09-18T00:34:24;98875.91;;;20.78;51.33
74881;BME280;63427;49.654;6.596;2023-09-18T00:36:49;98856.26;;;21.19;50.90
74881;BME280;63427;49.654;6.596;2023-09-18T00:39:15;98845.46;;;21.38;50.08
74881;BME280;63427;49.654;6.596;2023-09-18T00:41:40;98903.51;;;21.24;50.19
74881;BME280;63427;49.654;6.596;2023-09-18T00:44:05;98917.98;;;21.46;49.96
74881;BME280;63427;49.654;6.596;2023-09-18T00:46:31;98915.80;;;21.62;49.22
74881;BME280;63427;49.654;6.596;2023-09-18T00:48:56;98919.38;;;21.73;49.02
74881;BME280;63427;49.654;6.596;2023-09-18T00:51:21;98935.18;;;20.65;51.23
74881;BME280;63427;49.654;6.596;2023-09-18T00:53:47;98940.85;;;21.29;49.56
74881;BME280;63427;49.654;6.596;2023-09-18T00:56:12;98927.99;;;21.57;49.61
74881;BME280;63427;49.654;6.596;2023-09-18T00:58:37;98927.34;;;21.98;48.97
74881;BME280;63427;49.654;6.596;2023-09-18T01:01:03;98900.79;;;21.19;49.89
74881;BME280;63427;49.654;6.596;2023-09-18T01:03:27;98882.34;;;21.55;49.31
74881;BME280;63427;49.654;6.596;2023-09-18T01:05:54;98873.49;;;21.64;48.63
74881;BME280;63427;49.654;6.596;2023-09-18T01:08:18;98848.06;;;21.97;48.66
74881;BME280;63427;49.654;6.596;2023-09-18T01:10:48;98823.39;;;22.07;48.21
74881;BME280;63427;49.654;6.596;2023-09-18T01:13:12;98817.26;;;22.33;47.93
74881;BME280;63427;49.654;6.596;2023-09-18T01:15:38;98813.74;;;22.26;47.30
74881;BME280;63427;49.654;6.596;2023-09-18T01:18:00;98827.02;;;22.38;45.72
74881;BME280;63427;49.654;6.596;2023-09-18T01:20:25;98805.56;;;22.35;47.56
74881;BME280;63427;49.654;6.596;2023-09-18T01:22:49;98794.17;;;22.36;47.11
74881;BME280;63427;49.654;6.596;2023-09-18T01:25:15;98790.02;;;22.17;47.29
74881;BME280;63427;49.654;6.596;2023-09-18T01:27:40;98769.84;;;22.16;47.49
74881;BME280;63427;49.654;6.596;2023-09-18T01:30:06;98763.28;;;22.64;47.11
74881;BME280;63427;49.654;6.596;2023-09-18T01:32:33;98794.67;;;22.15;46.11
74881;BME280;63427;49.654;6.596;2023-09-18T01:34:57;98804.21;;;22.21;46.57
74881;BME280;63427;49.654;6.596;2023-09-18T01:37:24;98779.33;;;22.43;46.81
74881;BME280;63427;49.654;6.596;2023-09-18T01:39:49;98775.37;;;22.33;47.39
74881;BME280;63427;49.654;6.596;2023-09-18T01:42:12;98796.38;;;22.37;46.51
74881;BME280;63427;49.654;6.596;2023-09-18T01:44:37;98795.75;;;22.37;46.25
74881;BME280;63427;49.654;6.596;2023-09-18T01:47:03;98787.69;;;22.40;45.37
74881;BME280;63427;49.654;6.596;2023-09-18T01:49:28;98794.12;;;22.36;46.02
74881;BME280;63427;49.654;6.596;2023-09-18T01:51:53;98809.74;;;22.39;46.28
74881;BME280;63427;49.654;6.596;2023-09-18T01:54:18;98819.98;;;22.35;46.07
74881;BME280;63427;49.654;6.596;2023-09-18T01:56:43;98813.07;;;22.51;46.25
74881;BME280;63427;49.654;6.596;2023-09-18T01:59:08;98809.14;;;22.39;46.22
74881;BME280;63427;49.654;6.596;2023-09-18T02:01:34;98820.23;;;22.25;45.43
74881;BME280;63427;49.654;6.596;2023-09-18T02:03:59;98823.32;;;22.17;46.32
74881;BME280;63427;49.654;6.596;2023-09-18T02:06:24;98831.89;;;22.44;46.17
74881;BME280;63427;49.654;6.596;2023-09-18T02:08:49;98828.56;;;22.21;46.19
74881;BME280;63427;49.654;6.596;2023-09-18T02:11:14;98834.41;;;22.14;46.30
74881;BME280;63427;49.654;6.596;2023-09-18T02:13:40;98835.43;;;21.64;46.48
74881;BME280;63427;49.654;6.596;2023-09-18T02:16:05;98840.46;;;21.75;46.85
74881;BME280;63427;49.654;6.596;2023-09-18T02:18:30;98846.71;;;21.73;46.56
74881;BME280;63427;49.654;6.596;2023-09-18T02:20:55;98848.31;;;21.52;47.11
74881;BME280;63427;49.654;6.596;2023-09-18T02:23:21;98851.18;;;21.36;46.81
74881;BME280;63427;49.654;6.596;2023-09-18T02:25:46;98842.67;;;21.90;47.08
74881;BME280;63427;49.654;6.596;2023-09-18T02:28:11;98841.65;;;21.69;46.88
74881;BME280;63427;49.654;6.596;2023-09-18T02:30:36;98848.66;;;21.72;46.78
74881;BME280;63427;49.654;6.596;2023-09-18T02:33:02;98853.41;;;21.84;46.56
74881;BME280;63427;49.654;6.596;2023-09-18T02:35:26;98861.66;;;21.37;46.92
74881;BME280;63427;49.654;6.596;2023-09-18T02:37:52;98861.72;;;21.73;47.25
74881;BME280;63427;49.654;6.596;2023-09-18T02:40:17;98863.40;;;21.49;46.43
74881;BME280;63427;49.654;6.596;2023-09-18T02:42:42;98857.96;;;21.28;47.59
74881;BME280;63427;49.654;6.596;2023-09-18T02:45:08;98854.08;;;21.66;47.40
74881;BME280;63427;49.654;6.596;2023-09-18T02:47:32;98853.04;;;20.95;48.21
74881;BME280;63427;49.654;6.596;2023-09-18T02:49:58;98856.90;;;21.66;47.38
74881;BME280;63427;49.654;6.596;2023-09-18T02:52:23;98863.52;;;21.56;47.08
74881;BME280;63427;49.654;6.596;2023-09-18T02:54:48;98862.89;;;21.45;47.27
74881;BME280;63427;49.654;6.596;2023-09-18T02:57:13;98857.20;;;21.76;46.71
74881;BME280;63427;49.654;6.596;2023-09-18T02:59:38;98859.11;;;21.71;46.51
74881;BME280;63427;49.654;6.596;2023-09-18T03:02:04;98860.59;;;21.65;46.67
74881;BME280;63427;49.654;6.596;2023-09-18T03:04:30;98854.93;;;21.61;46.55
74881;BME280;63427;49.654;6.596;2023-09-18T03:06:54;98856.00;;;21.69;46.40
74881;BME280;63427;49.654;6.596;2023-09-18T03:09:19;98856.89;;;21.99;46.29
74881;BME280;63427;49.654;6.596;2023-09-18T03:11:44;98853.48;;;21.79;46.40
74881;BME280;63427;49.654;6.596;2023-09-18T03:14:09;98852.73;;;21.60;46.55
74881;BME280;63427;49.654;6.596;2023-09-18T03:16:35;98845.97;;;21.65;47.04
74881;BME280;63427;49.654;6.596;2023-09-18T03:19:00;98835.81;;;22.11;46.73
74881;BME280;63427;49.654;6.596;2023-09-18T03:21:26;98823.26;;;21.46;47.04
74881;BME280;63427;49.654;6.596;2023-09-18T03:23:51;98821.65;;;21.63;46.40
74881;BME280;63427;49.654;6.596;2023-09-18T03:26:16;98831.81;;;21.66;46.01
74881;BME280;63427;49.654;6.596;2023-09-18T03:28:41;98830.84;;;21.58;46.45
74881;BME280;63427;49.654;6.596;2023-09-18T03:31:09;98830.48;;;21.61;46.55
74881;BME280;63427;49.654;6.596;2023-09-18T03:33:32;98831.49;;;21.60;46.57
74881;BME280;63427;49.654;6.596;2023-09-18T03:35:57;98817.41;;;21.27;46.96
74881;BME280;63427;49.654;6.596;2023-09-18T03:38:22;98809.83;;;21.33;46.68
74881;BME280;63427;49.654;6.596;2023-09-18T03:40:47;98793.34;;;21.09;46.82
74881;BME280;63427;49.654;6.596;2023-09-18T03:43:13;98800.29;;;21.49;46.53
74881;BME280;63427;49.654;6.596;2023-09-18T03:45:38;98798.21;;;21.48;46.23
74881;BME280;63427;49.654;6.596;2023-09-18T03:48:04;98788.27;;;21.50;46.27
74881;BME280;63427;49.654;6.596;2023-09-18T03:50:29;98787.34;;;22.00;45.61
74881;BME280;63427;49.654;6.596;2023-09-18T03:52:54;98777.75;;;21.54;46.04
74881;BME280;63427;49.654;6.596;2023-09-18T03:55:19;98752.92;;;21.41;46.11
74881;BME280;63427;49.654;6.596;2023-09-18T03:57:44;98698.82;;;21.58;45.97
74881;BME280;63427;49.654;6.596;2023-09-18T04:00:10;98709.46;;;21.50;45.90
74881;BME280;63427;49.654;6.596;2023-09-18T04:02:35;98734.02;;;21.76;44.88
74881;BME280;63427;49.654;6.596;2023-09-18T04:05:00;98776.22;;;21.62;45.29
74881;BME280;63427;49.654;6.596;2023-09-18T04:07:26;98781.76;;;21.56;45.22
74881;BME280;63427;49.654;6.596;2023-09-18T04:09:51;98760.04;;;21.47;45.78
74881;BME280;63427;49.654;6.596;2023-09-18T04:12:16;98765.42;;;21.49;45.50
74881;BME280;63427;49.654;6.596;2023-09-18T04:14:42;98774.19;;;21.61;45.43
74881;BME280;63427;49.654;6.596;2023-09-18T04:17:06;98780.01;;;21.60;45.45
74881;BME280;63427;49.654;6.596;2023-09-18T04:19:32;98800.14;;;21.47;45.30
74881;BME280;63427;49.654;6.596;2023-09-18T04:21:56;98794.89;;;21.71;44.56
74881;BME280;63427;49.654;6.596;2023-09-18T04:24:22;98811.35;;;21.74;45.25
74881;BME280;63427;49.654;6.596;2023-09-18T04:26:47;98813.11;;;21.69;45.35
74881;BME280;63427;49.654;6.596;2023-09-18T04:29:12;98824.77;;;21.56;45.46
74881;BME280;63427;49.654;6.596;2023-09-18T04:31:38;98821.90;;;21.61;45.75
74881;BME280;63427;49.654;6.596;2023-09-18T04:34:03;98822.87;;;21.68;45.59
74881;BME280;63427;49.654;6.596;2023-09-18T04:36:28;98786.90;;;21.63;45.62
74881;BME280;63427;49.654;6.596;2023-09-18T04:38:53;98777.19;;;21.63;45.51
74881;BME280;63427;49.654;6.596;2023-09-18T04:41:19;98810.58;;;21.80;45.64
74881;BME280;63427;49.654;6.596;2023-09-18T04:43:44;98830.49;;;21.58;45.59
74881;BME280;63427;49.654;6.596;2023-09-18T04:46:09;98830.26;;;21.77;45.64
74881;BME280;63427;49.654;6.596;2023-09-18T04:48:34;98840.22;;;21.56;45.74
74881;BME280;63427;49.654;6.596;2023-09-18T04:50:59;98829.73;;;21.63;45.70
74881;BME280;63427;49.654;6.596;2023-09-18T04:53:24;98829.52;;;21.58;45.51
74881;BME280;63427;49.654;6.596;2023-09-18T04:55:49;98838.16;;;21.84;45.58
74881;BME280;63427;49.654;6.596;2023-09-18T04:58:15;98839.92;;;21.39;46.06
74881;BME280;63427;49.654;6.596;2023-09-18T05:00:40;98833.07;;;21.83;45.56
74881;BME280;63427;49.654;6.596;2023-09-18T05:03:05;98833.47;;;21.30;45.95
74881;BME280;63427;49.654;6.596;2023-09-18T05:05:30;98825.71;;;21.01;46.44
74881;BME280;63427;49.654;6.596;2023-09-18T05:07:55;98821.69;;;20.52;47.63
74881;BME280;63427;49.654;6.596;2023-09-18T05:10:20;98821.08;;;21.29;46.73
74881;BME280;63427;49.654;6.596;2023-09-18T05:12:46;98822.95;;;21.28;46.57
74881;BME280;63427;49.654;6.596;2023-09-18T05:15:11;98826.72;;;20.92;46.34
74881;BME280;63427;49.654;6.596;2023-09-18T05:17:41;98827.92;;;21.28;46.01
74881;BME280;63427;49.654;6.596;2023-09-18T05:20:01;98819.74;;;21.07;46.28
74881;BME280;63427;49.654;6.596;2023-09-18T05:22:27;98816.54;;;21.20;45.91
74881;BME280;63427;49.654;6.596;2023-09-18T05:24:52;98803.76;;;21.22;45.83
74881;BME280;63427;49.654;6.596;2023-09-18T05:27:17;98798.04;;;21.18;45.81
74881;BME280;63427;49.654;6.596;2023-09-18T05:29:42;98801.64;;;21.34;45.25
74881;BME280;63427;49.654;6.596;2023-09-18T05:32:07;98809.37;;;21.37;45.13
74881;BME280;63427;49.654;6.596;2023-09-18T05:34:32;98811.17;;;21.24;45.87
74881;BME280;63427;49.654;6.596;2023-09-18T05:36:57;98812.34;;;21.25;45.81
74881;BME280;63427;49.654;6.596;2023-09-18T05:39:23;98809.64;;;21.18;45.95
74881;BME280;63427;49.654;6.596;2023-09-18T05:41:48;98817.31;;;21.18;45.98
74881;BME280;63427;49.654;6.596;2023-09-18T05:44:13;98812.00;;;20.97;46.45
74881;BME280;63427;49.654;6.596;2023-09-18T05:46:39;98804.85;;;21.06;46.35
74881;BME280;63427;49.654;6.596;2023-09-18T05:49:03;98812.53;;;21.16;45.96
74881;BME280;63427;49.654;6.596;2023-09-18T05:51:30;98828.76;;;21.33;45.53
74881;BME280;63427;49.654;6.596;2023-09-18T05:53:54;98825.23;;;21.29;45.69
74881;BME280;63427;49.654;6.596;2023-09-18T05:56:19;98827.37;;;20.56;45.93
74881;BME280;63427;49.654;6.596;2023-09-18T05:58:44;98831.73;;;21.13;45.62
74881;BME280;63427;49.654;6.596;2023-09-18T06:01:09;98840.14;;;21.43;45.31
74881;BME280;63427;49.654;6.596;2023-09-18T06:03:35;98844.47;;;21.09;45.84
74881;BME280;63427;49.654;6.596;2023-09-18T06:06:00;98842.61;;;20.74;46.55
74881;BME280;63427;49.654;6.596;2023-09-18T06:08:25;98843.92;;;20.92;46.51
74881;BME280;63427;49.654;6.596;2023-09-18T06:10:50;98841.89;;;21.01;45.98
74881;BME280;63427;49.654;6.596;2023-09-18T06:13:15;98841.16;;;20.89;46.41
74881;BME280;63427;49.654;6.596;2023-09-18T06:15:40;98841.88;;;20.84;46.45
74881;BME280;63427;49.654;6.596;2023-09-18T06:18:06;98858.69;;;21.20;45.94
74881;BME280;63427;49.654;6.596;2023-09-18T06:20:31;98853.80;;;21.29;45.48
74881;BME280;63427;49.654;6.596;2023-09-18T06:22:56;98857.33;;;21.41;45.76
74881;BME280;63427;49.654;6.596;2023-09-18T06:25:21;98859.71;;;21.70;45.24
74881;BME280;63427;49.654;6.596;2023-09-18T06:27:46;98863.95;;;21.12;45.10
74881;BME280;63427;49.654;6.596;2023-09-18T06:30:13;98871.38;;;21.61;45.40
74881;BME280;63427;49.654;6.596;2023-09-18T06:32:37;98871.50;;;21.31;45.55
74881;BME280;63427;49.654;6.596;2023-09-18T06:35:03;98877.30;;;21.64;44.63
74881;BME280;63427;49.654;6.596;2023-09-18T06:37:28;98868.02;;;21.60;45.02
74881;BME280;63427;49.654;6.596;2023-09-18T06:39:54;98868.40;;;21.82;44.82
74881;BME280;63427;49.654;6.596;2023-09-18T06:42:19;98867.84;;;21.57;45.54
74881;BME280;63427;49.654;6.596;2023-09-18T06:44:44;98877.35;;;21.26;45.05
74881;BME280;63427;49.654;6.596;2023-09-18T06:47:09;98884.71;;;21.46;45.09
74881;BME280;63427;49.654;6.596;2023-09-18T06:49:34;98887.14;;;21.26;45.66
74881;BME280;63427;49.654;6.596;2023-09-18T06:51:59;98878.40;;;21.68;45.30
74881;BME280;63427;49.654;6.596;2023-09-18T06:54:24;98875.67;;;21.87;45.19
74881;BME280;63427;49.654;6.596;2023-09-18T06:56:50;98866.35;;;21.75;45.40
74881;BME280;63427;49.654;6.596;2023-09-18T06:59:15;98889.51;;;21.55;45.05
74881;BME280;63427;49.654;6.596;2023-09-18T07:01:40;98888.71;;;21.68;44.55
74881;BME280;63427;49.654;6.596;2023-09-18T07:04:10;98886.35;;;21.97;44.14
74881;BME280;63427;49.654;6.596;2023-09-18T07:06:30;98879.96;;;21.66;44.36
74881;BME280;63427;49.654;6.596;2023-09-18T07:08:56;98895.46;;;22.05;43.76
74881;BME280;63427;49.654;6.596;2023-09-18T07:11:21;98892.94;;;21.07;45.35
74881;BME280;63427;49.654;6.596;2023-09-18T07:13:46;98898.17;;;21.54;44.60
74881;BME280;63427;49.654;6.596;2023-09-18T07:16:11;98915.03;;;21.71;44.40
74881;BME280;63427;49.654;6.596;2023-09-18T07:18:37;98924.45;;;21.34;44.98
74881;BME280;63427;49.654;6.596;2023-09-18T07:21:02;98932.63;;;21.63;44.22
74881;BME280;63427;49.654;6.596;2023-09-18T07:23:27;98938.14;;;21.73;44.72
74881;BME280;63427;49.654;6.596;2023-09-18T07:25:52;98924.44;;;21.66;44.14
74881;BME280;63427;49.654;6.596;2023-09-18T07:28:17;98914.42;;;21.60;44.17
74881;BME280;63427;49.654;6.596;2023-09-18T07:30:42;98909.85;;;21.71;44.35
74881;BME280;63427;49.654;6.596;2023-09-18T07:33:07;98921.43;;;21.37;44.92
74881;BME280;63427;49.654;6.596;2023-09-18T07:35:33;98922.54;;;21.59;44.64
74881;BME280;63427;49.654;6.596;2023-09-18T07:38:03;98918.58;;;21.78;44.32
74881;BME280;63427;49.654;6.596;2023-09-18T07:40:23;98928.15;;;21.42;44.59
74881;BME280;63427;49.654;6.596;2023-09-18T07:42:53;98931.91;;;21.44;45.06
74881;BME280;63427;49.654;6.596;2023-09-18T07:45:14;98932.85;;;21.77;44.52
74881;BME280;63427;49.654;6.596;2023-09-18T07:47:38;98933.15;;;21.82;45.04
74881;BME280;63427;49.654;6.596;2023-09-18T07:50:05;98931.75;;;21.61;44.67
74881;BME280;63427;49.654;6.596;2023-09-18T07:52:29;98915.39;;;21.68;44.73
74881;BME280;63427;49.654;6.596;2023-09-18T07:54:54;98918.61;;;21.12;45.05
74881;BME280;63427;49.654;6.596;2023-09-18T07:57:19;98927.07;;;21.54;44.79
74881;BME280;63427;49.654;6.596;2023-09-18T07:59:44;98929.83;;;21.56;43.94
74881;BME280;63427;49.654;6.596;2023-09-18T08:02:09;98930.75;;;21.61;44.58
74881;BME280;63427;49.654;6.596;2023-09-18T08:04:34;98928.92;;;21.84;44.33
74881;BME280;63427;49.654;6.596;2023-09-18T08:07:00;98933.96;;;21.79;44.27
74881;BME280;63427;49.654;6.596;2023-09-18T08:09:25;98941.37;;;21.88;44.24
74881;BME280;63427;49.654;6.596;2023-09-18T08:11:50;98950.62;;;21.94;43.60
74881;BME280;63427;49.654;6.596;2023-09-18T08:14:15;98944.96;;;21.77;44.29
74881;BME280;63427;49.654;6.596;2023-09-18T08:16:40;98948.78;;;21.63;44.65
74881;BME280;63427;49.654;6.596;2023-09-18T08:19:05;98951.35;;;21.48;44.86
74881;BME280;63427;49.654;6.596;2023-09-18T08:21:30;98952.84;;;21.93;44.17
74881;BME280;63427;49.654;6.596;2023-09-18T08:23:56;98952.32;;;21.94;44.19
74881;BME280;63427;49.654;6.596;2023-09-18T08:26:21;98963.48;;;22.21;43.95
74881;BME280;63427;49.654;6.596;2023-09-18T08:28:46;98971.07;;;21.91;44.32
74881;BME280;63427;49.654;6.596;2023-09-18T08:31:11;98981.57;;;21.67;43.90
74881;BME280;63427;49.654;6.596;2023-09-18T08:33:37;98971.71;;;22.13;43.69
74881;BME280;63427;49.654;6.596;2023-09-18T08:36:01;98978.03;;;22.01;44.31
74881;BME280;63427;49.654;6.596;2023-09-18T08:38:28;98972.23;;;22.05;44.03
74881;BME280;63427;49.654;6.596;2023-09-18T08:40:54;98973.33;;;22.11;44.13
74881;BME280;63427;49.654;6.596;2023-09-18T08:43:19;98982.50;;;22.00;44.28
74881;BME280;63427;49.654;6.596;2023-09-18T08:45:46;98983.12;;;22.14;43.68
74881;BME280;63427;49.654;6.596;2023-09-18T08:48:07;98977.96;;;22.28;43.34
74881;BME280;63427;49.654;6.596;2023-09-18T08:50:33;98982.63;;;21.60;44.69
74881;BME280;63427;49.654;6.596;2023-09-18T08:52:58;98981.10;;;21.67;43.71
74881;BME280;63427;49.654;6.596;2023-09-18T08:55:23;98985.34;;;22.58;43.05
74881;BME280;63427;49.654;6.596;2023-09-18T08:57:48;98989.66;;;22.14;43.57
74881;BME280;63427;49.654;6.596;2023-09-18T09:00:16;98989.73;;;21.81;43.44
74881;BME280;63427;49.654;6.596;2023-09-18T09:02:38;98980.15;;;22.15;43.82
74881;BME280;63427;49.654;6.596;2023-09-18T09:05:04;98978.38;;;22.56;42.75
74881;BME280;63427;49.654;6.596;2023-09-18T09:07:28;98974.72;;;22.54;43.38
74881;BME280;63427;49.654;6.596;2023-09-18T09:09:53;98977.03;;;22.55;43.30
74881;BME280;63427;49.654;6.596;2023-09-18T09:17:09;98982.71;;;22.47;42.48
74881;BME280;63427;49.654;6.596;2023-09-18T09:19:35;98986.70;;;22.36;42.91
74881;BME280;63427;49.654;6.596;2023-09-18T09:21:59;98983.53;;;22.83;42.91
74881;BME280;63427;49.654;6.596;2023-09-18T09:24:38;98982.76;;;22.66;42.30
74881;BME280;63427;49.654;6.596;2023-09-18T09:26:59;98990.15;;;22.90;41.74
74881;BME280;63427;49.654;6.596;2023-09-18T09:29:15;98990.72;;;22.85;42.22
74881;BME280;63427;49.654;6.596;2023-09-18T09:31:39;98989.67;;;22.90;42.01
74881;BME280;63427;49.654;6.596;2023-09-18T09:34:04;98984.10;;;22.82;42.32
74881;BME280;63427;49.654;6.596;2023-09-18T09:36:30;98983.01;;;22.75;41.93
74881;BME280;63427;49.654;6.596;2023-09-18T09:38:56;98988.43;;;23.34;41.83
74881;BME280;63427;49.654;6.596;2023-09-18T09:41:20;98993.62;;;23.11;41.67
74881;BME280;63427;49.654;6.596;2023-09-18T09:43:45;98997.73;;;23.34;41.45
74881;BME280;63427;49.654;6.596;2023-09-18T09:46:15;99004.66;;;22.99;42.05
74881;BME280;63427;49.654;6.596;2023-09-18T09:48:37;99007.67;;;22.72;42.59
74881;BME280;63427;49.654;6.596;2023-09-18T09:51:01;99009.36;;;22.89;42.18
74881;BME280;63427;49.654;6.596;2023-09-18T09:53:42;99012.35;;;22.93;41.86
74881;BME280;63427;49.654;6.596;2023-09-18T09:55:54;99012.05;;;22.75;42.29
74881;BME280;63427;49.654;6.596;2023-09-18T09:58:15;99011.57;;;22.89;41.97
74881;BME280;63427;49.654;6.596;2023-09-18T10:00:43;99018.59;;;22.66;42.60
74881;BME280;63427;49.654;6.596;2023-09-18T10:03:07;99012.54;;;22.60;43.19
74881;BME280;63427;49.654;6.596;2023-09-18T10:05:32;99011.38;;;22.54;43.47
74881;BME280;63427;49.654;6.596;2023-09-18T10:07:58;99012.99;;;22.49;43.29
74881;BME280;63427;49.654;6.596;2023-09-18T10:10:21;98994.37;;;23.08;43.31
74881;BME280;63427;49.654;6.596;2023-09-18T10:12:47;98996.08;;;22.88;43.67
74881;BME280;63427;49.654;6.596;2023-09-18T10:15:12;98995.87;;;23.01;42.72
74881;BME280;63427;49.654;6.596;2023-09-18T10:17:37;98998.35;;;23.83;41.96
74881;BME280;63427;49.654;6.596;2023-09-18T10:20:05;98997.97;;;23.59;41.66
74881;BME280;63427;49.654;6.596;2023-09-18T10:22:31;98993.69;;;23.55;41.11
74881;BME280;63427;49.654;6.596;2023-09-18T10:24:56;98978.92;;;24.65;39.85
74881;BME280;63427;49.654;6.596;2023-09-18T10:27:17;98966.04;;;25.15;38.71
74881;BME280;63427;49.654;6.596;2023-09-18T10:29:42;98965.45;;;25.20;38.33
74881;BME280;63427;49.654;6.596;2023-09-18T10:32:07;98965.77;;;25.69;37.35
74881;BME280;63427;49.654;6.596;2023-09-18T10:34:33;98965.05;;;25.78;37.43
74881;BME280;63427;49.654;6.596;2023-09-18T10:37:00;98975.13;;;25.57;36.36
74881;BME280;63427;49.654;6.596;2023-09-18T10:39:25;98979.03;;;25.52;37.45
74881;BME280;63427;49.654;6.596;2023-09-18T10:41:53;98982.99;;;25.46;36.95
74881;BME280;63427;49.654;6.596;2023-09-18T10:44:16;98981.77;;;26.49;35.35
74881;BME280;63427;49.654;6.596;2023-09-18T10:46:41;98971.58;;;26.34;35.23
74881;BME280;63427;49.654;6.596;2023-09-18T10:49:08;98973.07;;;25.87;34.58
74881;BME280;63427;49.654;6.596;2023-09-18T10:51:33;98975.18;;;26.03;34.95
74881;BME280;63427;49.654;6.596;2023-09-18T10:54:01;98975.71;;;26.29;34.37
74881;BME280;63427;49.654;6.596;2023-09-18T10:56:25;98980.07;;;26.59;33.54
74881;BME280;63427;49.654;6.596;2023-09-18T10:58:56;98982.80;;;27.09;33.00
74881;BME280;63427;49.654;6.596;2023-09-18T11:01:17;98984.24;;;27.72;32.70
74881;BME280;63427;49.654;6.596;2023-09-18T11:03:43;98989.27;;;26.14;32.18
74881;BME280;63427;49.654;6.596;2023-09-18T11:06:10;98986.58;;;28.55;31.39
74881;BME280;63427;49.654;6.596;2023-09-18T11:08:43;98985.98;;;28.14;31.42
74881;BME280;63427;49.654;6.596;2023-09-18T11:11:00;98980.60;;;28.03;31.14
74881;BME280;63427;49.654;6.596;2023-09-18T11:13:30;98978.75;;;28.06;31.77
74881;BME280;63427;49.654;6.596;2023-09-18T11:15:50;98977.39;;;29.09;29.99
74881;BME280;63427;49.654;6.596;2023-09-18T11:18:19;98971.17;;;29.89;29.23
74881;BME280;63427;49.654;6.596;2023-09-18T11:20:41;98973.24;;;28.90;29.30
74881;BME280;63427;49.654;6.596;2023-09-18T11:23:17;98970.28;;;29.03;29.04
74881;BME280;63427;49.654;6.596;2023-09-18T11:25:37;98968.63;;;28.63;29.67
74881;BME280;63427;49.654;6.596;2023-09-18T11:27:59;98971.07;;;29.38;28.96
74881;BME280;63427;49.654;6.596;2023-09-18T11:30:25;98964.08;;;29.86;29.33
74881;BME280;63427;49.654;6.596;2023-09-18T11:32:50;98963.77;;;29.70;28.43
74881;BME280;63427;49.654;6.596;2023-09-18T11:35:16;98957.66;;;28.85;28.78
74881;BME280;63427;49.654;6.596;2023-09-18T11:37:42;98953.16;;;29.04;29.43
74881;BME280;63427;49.654;6.596;2023-09-18T11:42:33;98942.24;;;28.81;29.25
74881;BME280;63427;49.654;6.596;2023-09-18T11:44:58;98936.19;;;29.19;28.44
74881;BME280;63427;49.654;6.596;2023-09-18T11:47:25;98933.30;;;29.31;28.44
74881;BME280;63427;49.654;6.596;2023-09-18T11:49:51;98929.24;;;29.73;27.78
74881;BME280;63427;49.654;6.596;2023-09-18T11:52:16;98922.77;;;30.32;27.53
74881;BME280;63427;49.654;6.596;2023-09-18T11:54:41;98918.97;;;31.19;27.45
74881;BME280;63427;49.654;6.596;2023-09-18T11:57:07;98918.28;;;30.45;27.16
74881;BME280;63427;49.654;6.596;2023-09-18T11:59:36;98917.78;;;30.22;27.21
74881;BME280;63427;49.654;6.596;2023-09-18T12:01:58;98919.75;;;30.10;27.56
74881;BME280;63427;49.654;6.596;2023-09-18T12:04:27;98927.99;;;29.56;27.77
74881;BME280;63427;49.654;6.596;2023-09-18T12:06:50;98925.12;;;29.70;27.76
74881;BME280;63427;49.654;6.596;2023-09-18T12:09:15;98921.47;;;29.72;27.72
74881;BME280;63427;49.654;6.596;2023-09-18T12:11:41;98917.19;;;29.81;27.99
74881;BME280;63427;49.654;6.596;2023-09-18T12:14:07;98918.65;;;30.07;27.07
74881;BME280;63427;49.654;6.596;2023-09-18T12:16:37;98924.84;;;28.84;28.07
74881;BME280;63427;49.654;6.596;2023-09-18T12:18:58;98928.87;;;28.68;28.40
74881;BME280;63427;49.654;6.596;2023-09-18T12:21:24;98934.36;;;28.12;29.21
74881;BME280;63427;49.654;6.596;2023-09-18T12:23:50;98938.49;;;28.17;28.76
74881;BME280;63427;49.654;6.596;2023-09-18T12:26:16;98939.46;;;28.45;28.99
74881;BME280;63427;49.654;6.596;2023-09-18T12:28:42;98939.46;;;28.30;28.60
74881;BME280;63427;49.654;6.596;2023-09-18T12:31:10;98940.68;;;28.04;29.22
74881;BME280;63427;49.654;6.596;2023-09-18T12:33:35;98939.54;;;28.30;29.60
74881;BME280;63427;49.654;6.596;2023-09-18T12:35:58;98935.63;;;27.55;30.22
74881;BME280;63427;49.654;6.596;2023-09-18T12:38:24;98937.74;;;28.29;29.76
74881;BME280;63427;49.654;6.596;2023-09-18T12:40:50;98935.78;;;29.37;29.29
74881;BME280;63427;49.654;6.596;2023-09-18T12:43:16;98935.76;;;29.39;27.66
74881;BME280;63427;49.654;6.596;2023-09-18T12:45:42;98930.98;;;30.29;28.02
74881;BME280;63427;49.654;6.596;2023-09-18T12:48:07;98931.21;;;30.90;26.02
74881;BME280;63427;49.654;6.596;2023-09-18T12:50:32;98927.99;;;31.19;24.66
74881;BME280;63427;49.654;6.596;2023-09-18T12:53:07;98926.20;;;31.10;25.26
74881;BME280;63427;49.654;6.596;2023-09-18T12:55:25;98918.06;;;31.59;25.51